METAR Data
IDs: Format: Raw Decoded Include TAF

Data at: 1326 UTC 11 Dec 2018

LIMC 111320Z 31004KT 240V010 CAVOK 13/M07 Q1017 NOSIG

LIME 111320Z 16005KT 130V190 CAVOK 11/M11 Q1017 NOSIG

LIMF 111320Z 19008KT CAVOK 10/M03 Q1018

LIMG 111250Z 31005KT 9999 BKN040 12/04 Q1018

LIMJ 111320Z 36007KT 320V070 CAVOK 15/M08 Q1017

LIML 111320Z 35006KT CAVOK 13/M11 Q1017 NOSIG

LIMP 111250Z 30006KT CAVOK 12/M04 Q1019

LIPA 111255Z 10003KT 9999 FEW100 11/M02 Q1016 RMK FEW VIS MIN 9999 WIND THR05 08005KT WIND THR23 00000KTR A3003 BLU

LIPB 111250Z 03008KT 330V080 9999 SCT060 10/M14 Q1018

LIPC 111255Z 30007KT CAVOK 11/01 Q1018 RMK SKC VIS MIN 9999 WIND THR11 30008KT WIND THR29 31008KT BLU

LIPH 111320Z VRB02KT CAVOK 13/M06 Q1017

LIPI 111255Z /////KT CAVOK 12/M03 Q1017

LIPK 111250Z 33007KT CAVOK 11/M04 Q1018

LIPL 111255Z 18003KT CAVOK 10/03 Q1018 RMK SKC VIS MIN 9999 WIND THR31 23004KT WIND THR13 19003KT BLU

LIPO 111250Z 22004KT CAVOK 10/M01 Q1018

LIPQ 111320Z 25006KT CAVOK 11/00 Q1017

LIPR 111320Z 30009KT CAVOK 11/00 Q1018

LIPZ 111320Z 17004KT CAVOK 11/02 Q1017 NOSIG

LIRP 111315Z 13005KT CAVOK 13/M03 Q1017 NOSIG

LFKB 111300Z AUTO 02006KT 350V050 CAVOK 15/01 Q1017 NOSIG

LFKC 111300Z AUTO 33005KT 280V010 CAVOK 15/07 Q1017 NOSIG

LFKJ 111300Z AUTO 23010KT 9999 BKN042 BKN048 BKN054 15/07 Q1017 NOSIG

LFLL 111300Z 36013KT 9999 FEW025 08/01 Q1023 NOSIG

LFML 111300Z AUTO 35014KT CAVOK 12/03 Q1018 NOSIG

LFMN 111300Z 09011KT 9999 SCT040 15/07 Q1017 NOSIG

LOWI 111250Z 08007KT 060V120 9999 FEW015 SCT060 BKN075 02/M01 Q1021 R08/29//95 NOSIG

LOWL 111250Z 26020KT 9999 -SHRASN FEW012 SCT020 BKN047 03/M01 Q1018 NOSIG

LOWW 111250Z 28018KT 9999 FEW019 SCT027 BKN060 05/M01 Q1014 NOSIG

LSGG 111320Z 08006KT 050V110 9999 FEW030 07/M01 Q1022 NOSIG

LSZH 111320Z 31004KT 9999 FEW024 SCT056 04/M02 Q1023 NOSIG